Time;durP1;ratioP1;P1;durP2;ratioP2;P2;SDS_P1;SDS_P2;PMS_P1;PMS_P2;Temp;Humidity;BMP_temperature;BMP_pressure;BME280_temperature;BME280_humidity;BME280_pressure;Samples;Min_cycle;Max_cycle;Signal;HPM_P1;HPM_P2
2022/01/14 00:00:58;;;;;;;23.47;14.00;;;-1.60;99.90;;;;;;4988467;28;20193;-74
2022/01/14 00:03:24;;;;;;;24.50;14.30;;;-1.60;99.90;;;;;;4989814;28;20959;-75
2022/01/14 00:05:50;;;;;;;25.80;14.60;;;-1.50;99.90;;;;;;4989732;28;20620;-76
2022/01/14 00:08:15;;;;;;;25.80;15.10;;;-1.60;99.90;;;;;;4988283;28;20327;-76
2022/01/14 00:10:48;;;;;;;29.07;15.20;;;-1.40;99.90;;;;;;4989383;28;20208;-76
2022/01/14 00:13:37;;;;;;;29.42;17.00;;;-1.40;99.90;;;;;;4988313;28;20241;-76
2022/01/14 00:15:59;;;;;;;31.42;15.15;;;-1.40;99.90;;;;;;4989140;28;20186;-76
2022/01/14 00:18:25;;;;;;;32.00;16.80;;;-1.40;99.90;;;;;;4971994;28;20197;-76
2022/01/14 00:20:50;;;;;;;28.00;16.23;;;-1.40;99.90;;;;;;4989486;28;20182;-76
2022/01/14 00:23:26;;;;;;;27.50;16.70;;;-1.50;99.90;;;;;;4989078;28;20214;-75
2022/01/14 00:34:04;;;;;;;26.10;14.90;;;-1.50;99.90;;;;;;4989045;28;20251;-76
2022/01/14 00:36:30;;;;;;;22.00;13.85;;;-1.60;99.90;;;;;;4988889;28;20197;-76
2022/01/14 00:38:55;;;;;;;25.60;14.77;;;-1.60;99.90;;;;;;4987367;28;20189;-76
2022/01/14 00:41:22;;;;;;;35.03;19.33;;;-1.60;99.90;;;;;;4988668;28;20186;-76
2022/01/14 00:43:49;;;;;;;24.27;14.20;;;-1.50;99.90;;;;;;4988637;28;20221;-75
2022/01/14 00:46:15;;;;;;;19.15;12.18;;;-1.50;99.90;;;;;;4987665;28;20174;-75
2022/01/14 00:48:40;;;;;;;22.90;13.53;;;-1.50;99.90;;;;;;4988850;28;20182;-76
2022/01/14 00:51:06;;;;;;;24.20;12.87;;;-1.50;99.90;;;;;;4987345;28;20692;-75
2022/01/14 00:53:32;;;;;;;25.33;11.23;;;-1.60;99.90;;;;;;4986979;28;20212;-75
2022/01/14 00:56:19;;;;;;;19.63;11.37;;;-1.50;99.90;;;;;;4971103;28;20221;-76
2022/01/14 01:01:29;;;;;;;18.95;11.75;;;-1.40;99.90;;;;;;4992230;28;20189;-77
2022/01/14 01:03:55;;;;;;;19.17;11.90;;;-1.40;99.90;;;;;;4991066;28;20217;-77
2022/01/14 01:06:21;;;;;;;21.60;12.93;;;-1.40;99.90;;;;;;4990959;28;20189;-77
2022/01/14 01:08:49;;;;;;;24.60;13.63;;;-1.50;99.90;;;;;;4990762;28;20522;-75
2022/01/14 01:11:17;;;;;;;21.00;12.18;;;-1.50;99.90;;;;;;4992387;28;20674;-76
2022/01/14 01:13:49;;;;;;;21.40;12.80;;;-1.40;99.90;;;;;;4990934;28;20287;-76
2022/01/14 01:16:15;;;;;;;20.55;12.82;;;-1.40;99.90;;;;;;4990761;28;20239;-75
2022/01/14 01:18:40;;;;;;;20.43;11.30;;;-1.40;99.90;;;;;;4990577;28;20286;-76
2022/01/14 01:21:06;;;;;;;23.17;12.57;;;-1.40;99.90;;;;;;4992025;28;20726;-76
2022/01/14 01:23:32;;;;;;;29.47;11.97;;;-1.40;99.90;;;;;;4990499;28;20217;-76
2022/01/14 01:26:08;;;;;;;15.73;10.87;;;-1.50;99.90;;;;;;4990774;28;20213;-76
2022/01/14 01:28:40;;;;;;;20.52;11.50;;;-1.50;99.90;;;;;;4992564;28;20268;-76
2022/01/14 01:31:34;;;;;;;18.90;11.90;;;-1.50;99.90;;;;;;4960388;28;20181;-75
2022/01/14 01:33:51;;;;;;;16.27;10.20;;;-1.50;99.90;;;;;;4992111;28;20556;-75
2022/01/14 01:36:17;;;;;;;15.80;9.10;;;-1.50;99.90;;;;;;4992352;28;20196;-76
2022/01/14 01:38:42;;;;;;;10.60;7.03;;;-1.60;99.90;;;;;;4992298;28;20633;-76
2022/01/14 01:41:11;;;;;;;12.30;7.30;;;-1.60;99.90;;;;;;4990862;28;20196;-76
2022/01/14 01:43:39;;;;;;;9.95;7.03;;;-1.60;99.90;;;;;;4992016;28;20785;-76
2022/01/14 01:46:04;;;;;;;13.90;8.18;;;-1.60;99.90;;;;;;4992037;28;20188;-75
2022/01/14 01:48:30;;;;;;;13.80;8.70;;;-1.50;99.90;;;;;;4973974;28;20569;-75
2022/01/14 01:50:58;;;;;;;12.00;8.53;;;-1.50;99.90;;;;;;4991702;28;20899;-76
2022/01/14 01:53:23;;;;;;;13.02;7.90;;;-1.50;99.90;;;;;;4991386;28;20559;-76
2022/01/14 01:55:49;;;;;;;14.13;8.27;;;-1.50;99.90;;;;;;4990054;28;20193;-76
2022/01/14 01:58:14;;;;;;;15.13;9.00;;;-1.50;99.90;;;;;;4990027;28;20224;-76
2022/01/14 02:00:40;;;;;;;14.77;8.30;;;-1.50;99.90;;;;;;4991101;28;20198;-76
2022/01/14 02:03:07;;;;;;;15.33;8.50;;;-1.60;99.90;;;;;;4991059;28;20288;-76
2022/01/14 02:05:33;;;;;;;14.55;9.27;;;-1.50;99.90;;;;;;4991027;28;20211;-76
2022/01/14 02:07:59;;;;;;;14.90;8.60;;;-1.50;99.90;;;;;;4991142;28;20265;-76
2022/01/14 02:10:25;;;;;;;14.63;8.50;;;-1.60;99.90;;;;;;4989566;28;21029;-76
2022/01/14 02:12:53;;;;;;;13.70;8.52;;;-1.60;99.90;;;;;;4989430;28;20186;-76
2022/01/14 02:23:40;;;;;;;12.90;8.18;;;-1.70;99.90;;;;;;4987837;28;20225;-76
2022/01/14 02:26:06;;;;;;;12.63;9.15;;;-1.60;99.90;;;;;;4989405;28;20566;-76
2022/01/14 02:28:33;;;;;;;13.43;7.65;;;-1.70;99.90;;;;;;4990608;28;20277;-76
2022/01/14 02:30:58;;;;;;;13.98;8.45;;;-1.60;99.90;;;;;;4990436;28;20193;-75
2022/01/14 02:33:24;;;;;;;9.87;7.37;;;-1.60;99.90;;;;;;4989031;28;20189;-76
2022/01/14 02:35:53;;;;;;;11.70;7.87;;;-1.60;99.90;;;;;;4989122;28;20561;-76
2022/01/14 02:38:19;;;;;;;11.70;7.30;;;-1.50;99.90;;;;;;4990420;28;20189;-75
2022/01/14 02:40:47;;;;;;;11.52;7.65;;;-1.50;99.90;;;;;;4988850;28;20776;-76
2022/01/14 02:43:14;;;;;;;13.57;6.93;;;-1.50;99.90;;;;;;4990365;28;20209;-75
2022/01/14 02:45:51;;;;;;;15.00;7.63;;;-1.50;99.90;;;;;;4988803;28;20185;-75
2022/01/14 02:48:20;;;;;;;10.90;7.45;;;-1.60;99.90;;;;;;4988704;28;20189;-76
2022/01/14 02:56:25;;;;;;;14.57;7.65;;;-1.60;99.90;;;;;;4990215;28;20201;-76
2022/01/14 02:58:52;;;;;;;13.00;7.55;;;-1.60;99.90;;;;;;4985066;28;20225;-77
2022/01/14 03:01:22;;;;;;;12.68;6.90;;;-1.60;99.90;;;;;;4988475;28;20192;-76
2022/01/14 03:03:53;;;;;;;11.55;7.10;;;-1.70;99.90;;;;;;4988550;28;20218;-75
2022/01/14 03:06:19;;;;;;;9.80;7.13;;;-1.70;99.90;;;;;;4988887;28;20625;-76
2022/01/14 03:08:45;;;;;;;10.63;6.90;;;-1.60;99.90;;;;;;4989874;28;20178;-76
2022/01/14 03:11:17;;;;;;;10.38;6.63;;;-1.70;99.90;;;;;;4989815;28;20479;-76
2022/01/14 03:13:43;;;;;;;12.43;6.75;;;-1.70;99.90;;;;;;4989631;28;20260;-75
2022/01/14 03:16:09;;;;;;;8.50;6.67;;;-1.70;99.90;;;;;;4989763;28;20194;-76
2022/01/14 03:18:46;;;;;;;8.50;5.80;;;-1.70;99.90;;;;;;4989865;28;20212;-76
2022/01/14 03:21:15;;;;;;;7.72;5.55;;;-1.60;99.90;;;;;;4988146;28;20483;-76
2022/01/14 03:23:48;;;;;;;8.43;5.35;;;-1.60;99.90;;;;;;4989091;28;20221;-76
2022/01/14 03:26:19;;;;;;;7.30;4.95;;;-1.60;99.90;;;;;;4989462;28;20185;-76
2022/01/14 03:28:47;;;;;;;9.70;5.85;;;-1.60;99.90;;;;;;4989373;28;20178;-76
2022/01/14 03:31:12;;;;;;;10.07;6.10;;;-1.60;99.90;;;;;;4989486;28;20663;-76
2022/01/14 03:33:38;;;;;;;5.77;3.90;;;-1.70;99.90;;;;;;4989191;28;20212;-77
2022/01/14 03:36:06;;;;;;;8.20;4.47;;;-1.70;99.90;;;;;;4987861;28;20284;-77
2022/01/14 03:38:31;;;;;;;5.45;4.03;;;-1.70;99.90;;;;;;4989261;28;20429;-76
2022/01/14 03:40:58;;;;;;;6.63;3.80;;;-1.60;99.90;;;;;;4989389;28;20185;-77
2022/01/14 03:43:23;;;;;;;4.88;3.70;;;-1.60;99.90;;;;;;4989126;28;20213;-76
2022/01/14 03:45:50;;;;;;;6.33;4.17;;;-1.60;99.90;;;;;;4988385;28;20192;-77
2022/01/14 03:48:17;;;;;;;7.35;4.40;;;-1.70;99.90;;;;;;4989664;28;20286;-76
2022/01/14 03:50:43;;;;;;;5.55;4.00;;;-1.70;99.90;;;;;;4990995;28;20204;-78
2022/01/14 03:53:11;;;;;;;8.17;4.80;;;-1.60;99.90;;;;;;4988517;28;20732;-76
2022/01/14 03:55:38;;;;;;;6.57;4.90;;;-1.60;99.90;;;;;;4990098;28;20639;-78
2022/01/14 03:58:04;;;;;;;6.20;4.25;;;-1.60;99.90;;;;;;4994528;28;20185;-78
2022/01/14 04:00:30;;;;;;;11.90;4.97;;;-1.70;99.90;;;;;;4993713;28;20984;-78
2022/01/14 04:02:56;;;;;;;7.53;5.07;;;-1.70;99.90;;;;;;4992217;28;20236;-77
2022/01/14 04:05:22;;;;;;;6.73;4.47;;;-1.70;99.90;;;;;;4988991;28;20679;-76
2022/01/14 04:07:47;;;;;;;9.13;5.47;;;-1.70;99.90;;;;;;4987799;28;20268;-78
2022/01/14 04:10:13;;;;;;;7.10;5.80;;;-1.70;99.90;;;;;;4988113;28;20714;-77
2022/01/14 04:12:51;;;;;;;8.33;5.60;;;-1.80;99.90;;;;;;4987588;28;20193;-79
2022/01/14 04:15:37;;;;;;;9.90;6.22;;;-1.80;99.90;;;;;;4989190;28;20464;-77
2022/01/14 04:18:07;;;;;;;13.50;7.13;;;-1.70;99.90;;;;;;4988946;28;20265;-77
2022/01/14 04:20:34;;;;;;;12.90;6.78;;;-1.70;99.90;;;;;;4990366;28;20567;-76
2022/01/14 04:23:00;;;;;;;14.38;7.72;;;-1.70;99.90;;;;;;4991439;28;20209;-78
2022/01/14 04:25:26;;;;;;;10.50;7.20;;;-1.60;99.90;;;;;;4990003;28;20231;-77
2022/01/14 04:27:52;;;;;;;10.80;6.30;;;-1.70;99.90;;;;;;4989973;28;20184;-77
2022/01/14 04:30:18;;;;;;;12.10;7.00;;;-1.70;99.90;;;;;;4988988;28;20182;-77
2022/01/14 04:32:44;;;;;;;11.88;8.63;;;-1.70;99.90;;;;;;4988985;28;20507;-77
2022/01/14 04:35:10;;;;;;;12.27;7.70;;;-1.70;99.90;;;;;;4990451;28;20289;-78
2022/01/14 04:37:36;;;;;;;10.68;7.00;;;-1.80;99.90;;;;;;4993480;28;20186;-78
2022/01/14 04:40:03;;;;;;;13.00;8.40;;;-1.80;99.90;;;;;;4993457;28;20196;-77
2022/01/14 04:42:29;;;;;;;8.63;6.05;;;-1.80;99.90;;;;;;4991977;28;20240;-76
2022/01/14 04:44:56;;;;;;;11.02;6.32;;;-1.90;99.90;;;;;;4993617;28;20233;-77
2022/01/14 04:47:32;;;;;;;7.63;5.25;;;-2.00;99.90;;;;;;4976777;28;20190;-78
2022/01/14 04:50:00;;;;;;;11.55;6.03;;;-2.20;99.90;;;;;;4994035;28;20186;-78
2022/01/14 04:52:27;;;;;;;8.88;6.97;;;-2.20;99.90;;;;;;4994060;28;20221;-77
2022/01/14 04:54:54;;;;;;;11.70;8.25;;;-2.10;99.90;;;;;;4994046;28;20208;-77
2022/01/14 04:57:21;;;;;;;11.75;7.43;;;-2.10;99.90;;;;;;4994011;28;20193;-77
2022/01/14 04:59:48;;;;;;;8.50;5.85;;;-2.10;99.90;;;;;;4993484;28;20186;-78
2022/01/14 05:02:14;;;;;;;14.50;9.65;;;-2.00;99.90;;;;;;4992108;28;20189;-77
2022/01/14 05:04:41;;;;;;;18.05;10.20;;;-2.00;99.90;;;;;;4992003;28;20240;-77
2022/01/14 05:07:12;;;;;;;12.07;7.65;;;-2.00;99.90;;;;;;4992478;28;20187;-78
2022/01/14 05:09:42;;;;;;;8.93;6.68;;;-1.90;99.90;;;;;;4992988;28;20186;-78
2022/01/14 05:12:10;;;;;;;6.70;5.13;;;-1.80;99.90;;;;;;4994878;28;20202;-77
2022/01/14 05:14:36;;;;;;;7.28;5.32;;;-1.80;99.90;;;;;;4994732;28;20289;-78
2022/01/14 05:17:03;;;;;;;8.68;5.20;;;-1.80;99.90;;;;;;4992727;28;20718;-78
2022/01/14 05:19:29;;;;;;;7.47;4.85;;;-1.90;99.90;;;;;;4993122;28;20183;-79
2022/01/14 05:21:55;;;;;;;10.77;5.90;;;-1.90;99.90;;;;;;4992785;28;20178;-79
2022/01/14 05:24:22;;;;;;;9.90;6.40;;;-1.90;99.90;;;;;;4992687;28;20480;-78
2022/01/14 05:26:48;;;;;;;9.30;6.13;;;-1.90;99.90;;;;;;4993321;28;20171;-78
2022/01/14 05:29:13;;;;;;;11.00;5.77;;;-1.90;99.90;;;;;;4992989;28;20243;-79
2022/01/14 05:31:40;;;;;;;7.60;5.47;;;-1.90;99.90;;;;;;4993194;28;20217;-79
2022/01/14 05:34:06;;;;;;;10.30;6.10;;;-1.90;99.90;;;;;;4992515;28;20209;-78
2022/01/14 05:36:31;;;;;;;7.50;5.30;;;-1.90;99.90;;;;;;4990935;28;20248;-79
2022/01/14 05:38:57;;;;;;;7.27;4.90;;;-2.00;99.90;;;;;;4991084;28;20232;-79
2022/01/14 05:41:23;;;;;;;10.83;5.43;;;-2.00;99.90;;;;;;4991935;28;20194;-78
2022/01/14 05:43:48;;;;;;;21.67;10.73;;;-1.90;99.90;;;;;;4990985;28;20365;-78
2022/01/14 05:46:14;;;;;;;14.93;8.47;;;-1.90;99.90;;;;;;4990370;28;20186;-76
2022/01/14 05:48:39;;;;;;;7.10;5.50;;;-2.10;99.90;;;;;;4992362;28;20186;-79
2022/01/14 05:51:05;;;;;;;9.03;5.10;;;-2.10;99.90;;;;;;4990916;28;20305;-79
2022/01/14 05:53:31;;;;;;;6.90;4.93;;;-2.10;99.90;;;;;;4990407;28;20205;-78
2022/01/14 05:55:56;;;;;;;6.60;4.33;;;-2.00;99.90;;;;;;4990991;28;20205;-78
2022/01/14 05:58:22;;;;;;;6.67;4.60;;;-2.00;99.90;;;;;;4990231;28;20596;-77
2022/01/14 06:00:48;;;;;;;8.13;4.47;;;-2.00;99.90;;;;;;4973942;28;20200;-79
2022/01/14 06:03:13;;;;;;;7.10;4.77;;;-2.00;99.90;;;;;;4991787;28;20225;-79
2022/01/14 06:05:39;;;;;;;6.07;3.87;;;-2.00;99.90;;;;;;4990464;28;20578;-79
2022/01/14 06:08:05;;;;;;;4.40;3.40;;;-2.10;99.90;;;;;;4991830;28;20182;-79
2022/01/14 06:10:31;;;;;;;3.95;3.47;;;-2.10;99.90;;;;;;4992224;28;20178;-78
2022/01/14 06:12:57;;;;;;;6.83;4.00;;;-2.10;99.90;;;;;;4992321;28;20237;-78
2022/01/14 06:15:23;;;;;;;12.03;4.97;;;-2.10;99.90;;;;;;4989588;28;20245;-78
2022/01/14 06:17:48;;;;;;;10.07;4.93;;;-2.00;99.90;;;;;;4990135;28;20441;-79
2022/01/14 06:20:14;;;;;;;7.50;4.87;;;-2.10;99.90;;;;;;4958035;28;20195;-77
2022/01/14 06:22:40;;;;;;;7.97;4.53;;;-2.00;99.90;;;;;;4991700;28;20650;-79
2022/01/14 06:25:07;;;;;;;17.67;6.80;;;-2.10;99.90;;;;;;4991864;28;20198;-79
2022/01/14 06:27:33;;;;;;;20.67;7.05;;;-2.00;99.90;;;;;;4990764;28;20189;-78
2022/01/14 06:30:00;;;;;;;10.90;6.90;;;-2.10;99.90;;;;;;4991786;28;20559;-79
2022/01/14 06:32:25;;;;;;;12.13;6.80;;;-2.10;99.90;;;;;;4992646;28;20462;-78
2022/01/14 06:34:51;;;;;;;14.17;7.27;;;-2.10;99.90;;;;;;4991016;28;20752;-78
2022/01/14 06:37:17;;;;;;;13.83;7.40;;;-2.10;99.90;;;;;;4992408;28;20186;-79
2022/01/14 06:39:42;;;;;;;14.63;8.13;;;-2.10;99.90;;;;;;4992471;28;20186;-78
2022/01/14 06:42:08;;;;;;;14.03;7.30;;;-2.10;99.90;;;;;;4990733;28;20177;-79
2022/01/14 06:44:37;;;;;;;12.48;7.40;;;-2.10;99.90;;;;;;4991266;28;20217;-78
2022/01/14 06:47:03;;;;;;;12.77;7.30;;;-2.10;99.90;;;;;;4992685;28;20644;-78
2022/01/14 06:49:28;;;;;;;14.00;8.25;;;-2.10;99.90;;;;;;4992277;28;20185;-78
2022/01/14 06:51:54;;;;;;;12.07;6.60;;;-2.10;99.90;;;;;;4991930;28;20655;-78
2022/01/14 06:54:20;;;;;;;14.27;8.07;;;-2.20;99.90;;;;;;4991930;28;20695;-78
2022/01/14 06:56:45;;;;;;;10.27;6.60;;;-2.20;99.90;;;;;;4989690;28;20233;-78
2022/01/14 06:59:11;;;;;;;12.77;8.60;;;-2.10;99.90;;;;;;4988971;28;20194;-78
2022/01/14 07:01:37;;;;;;;11.97;7.03;;;-2.10;99.90;;;;;;4991388;28;20193;-79
2022/01/14 07:04:03;;;;;;;10.53;6.80;;;-2.10;99.90;;;;;;4989284;28;20702;-79
2022/01/14 07:06:29;;;;;;;9.70;6.60;;;-2.10;99.90;;;;;;4990535;28;20561;-79
2022/01/14 07:08:54;;;;;;;10.10;6.70;;;-2.20;99.90;;;;;;4972748;28;20189;-79
2022/01/14 07:11:25;;;;;;;15.20;8.00;;;-2.20;99.90;;;;;;4972188;28;20185;-79
2022/01/14 07:13:51;;;;;;;14.50;8.60;;;-2.10;99.90;;;;;;4989997;28;20213;-79
2022/01/14 07:16:17;;;;;;;23.20;9.90;;;-2.20;99.90;;;;;;4989943;28;20463;-79
2022/01/14 07:18:45;;;;;;;18.23;10.07;;;-2.10;99.90;;;;;;4988967;28;20433;-78
2022/01/14 07:21:11;;;;;;;17.65;9.90;;;-2.00;99.90;;;;;;4991317;28;20659;-76
2022/01/14 07:23:36;;;;;;;15.80;8.77;;;-2.00;99.90;;;;;;4987364;28;20241;-78
2022/01/14 07:26:02;;;;;;;20.03;9.10;;;-2.00;99.90;;;;;;4989156;28;20185;-78
2022/01/14 07:28:28;;;;;;;16.07;8.67;;;-1.90;99.90;;;;;;4988627;28;20194;-78
2022/01/14 07:30:54;;;;;;;12.13;8.00;;;-1.90;99.90;;;;;;4989617;28;20232;-80
2022/01/14 07:33:19;;;;;;;13.73;8.43;;;-1.90;99.90;;;;;;4990414;28;20186;-78
2022/01/14 07:35:45;;;;;;;12.60;6.40;;;-1.90;99.90;;;;;;4956498;28;20558;-77
2022/01/14 07:38:10;;;;;;;12.30;7.83;;;-1.90;99.90;;;;;;4987966;28;21019;-79
2022/01/14 07:40:38;;;;;;;10.50;6.43;;;-1.90;99.90;;;;;;4988319;28;20190;-78
2022/01/14 07:43:04;;;;;;;13.00;7.55;;;-1.70;99.90;;;;;;4990442;28;20679;-79
2022/01/14 07:45:30;;;;;;;12.00;8.10;;;-1.90;99.90;;;;;;4988963;28;20215;-78
2022/01/14 07:47:55;;;;;;;9.53;6.87;;;-1.80;99.90;;;;;;4989190;28;20190;-78
2022/01/14 07:50:21;;;;;;;14.10;7.00;;;-1.80;99.90;;;;;;4972934;28;20231;-75
2022/01/14 07:52:47;;;;;;;15.33;7.87;;;-1.80;99.90;;;;;;4990228;28;21024;-77
2022/01/14 07:55:12;;;;;;;11.80;7.70;;;-1.80;99.90;;;;;;4989032;28;20205;-78
2022/01/14 07:57:38;;;;;;;13.60;7.73;;;-1.80;99.90;;;;;;4991650;28;20265;-79
2022/01/14 08:00:06;;;;;;;10.93;6.77;;;-1.70;99.90;;;;;;5001661;28;20213;-77
2022/01/14 08:02:32;;;;;;;9.57;7.38;;;-1.60;99.90;;;;;;4995550;28;20643;-78
2022/01/14 08:04:57;;;;;;;14.17;9.50;;;-1.30;99.90;;;;;;4996430;28;20220;-77
2022/01/14 08:07:24;;;;;;;9.43;8.20;;;-1.10;99.90;;;;;;4996873;28;20182;-77
2022/01/14 08:09:50;;;;;;;10.43;6.65;;;-0.80;99.90;;;;;;5000730;28;20554;-77
2022/01/14 08:12:16;;;;;;;5.07;4.63;;;-0.40;99.90;;;;;;5002415;28;20253;-78
2022/01/14 08:14:41;;;;;;;7.10;5.70;;;0.20;99.90;;;;;;5004510;28;20194;-77
2022/01/14 08:17:07;;;;;;;12.47;7.50;;;0.80;99.90;;;;;;5010417;28;20425;-78
2022/01/14 08:19:33;;;;;;;13.32;8.90;;;1.50;99.90;;;;;;5011669;28;20202;-78
2022/01/14 08:22:08;;;;;;;8.43;5.47;;;2.40;99.90;;;;;;5009017;28;20186;-78
2022/01/14 08:24:35;;;;;;;5.82;4.78;;;3.10;99.90;;;;;;5005641;28;20246;-78
2022/01/14 08:27:01;;;;;;;7.82;5.90;;;4.20;99.90;;;;;;5005509;28;20195;-78
2022/01/14 08:29:28;;;;;;;8.70;6.33;;;5.60;99.90;;;;;;5013570;28;20185;-77
2022/01/14 08:31:55;;;;;;;14.77;10.07;;;7.00;98.30;;;;;;5014746;28;20417;-76
2022/01/14 08:34:21;;;;;;;16.77;11.23;;;8.40;94.40;;;;;;5008993;28;21309;-77
2022/01/14 08:36:47;;;;;;;21.67;15.27;;;9.20;91.20;;;;;;5009444;28;20509;-76
2022/01/14 08:39:14;;;;;;;24.13;17.27;;;10.00;86.70;;;;;;5015937;28;20468;-77
2022/01/14 08:41:40;;;;;;;25.93;18.33;;;10.70;81.60;;;;;;5017124;28;20426;-77
2022/01/14 08:44:06;;;;;;;28.30;19.97;;;11.20;77.40;;;;;;5016858;28;20477;-77
2022/01/14 08:46:33;;;;;;;23.23;16.80;;;11.70;73.30;;;;;;5015588;28;20467;-77
2022/01/14 08:49:01;;;;;;;19.20;14.77;;;12.00;71.80;;;;;;5008828;28;20429;-76
2022/01/14 08:51:28;;;;;;;18.37;14.53;;;12.20;69.10;;;;;;5007205;28;20419;-75
2022/01/14 08:53:54;;;;;;;17.30;12.77;;;12.60;66.50;;;;;;5010145;28;20463;-76
2022/01/14 08:56:20;;;;;;;16.90;12.70;;;13.00;64.50;;;;;;5000857;28;20425;-77
2022/01/14 08:58:46;;;;;;;18.63;12.90;;;13.40;63.60;;;;;;5007896;28;20450;-77
2022/01/14 09:01:11;;;;;;;14.13;11.93;;;13.50;62.40;;;;;;5005578;28;20226;-77
2022/01/14 09:03:37;;;;;;;18.10;12.90;;;13.50;61.10;;;;;;5002319;28;20799;-76
2022/01/14 09:06:03;;;;;;;19.20;12.93;;;13.70;60.20;;;;;;5007813;28;20187;-77
2022/01/14 09:08:29;;;;;;;14.50;11.67;;;14.20;58.90;;;;;;4997213;28;20194;-77
2022/01/14 09:10:58;;;;;;;14.30;12.00;;;14.80;57.50;;;;;;4992409;28;20196;-78
2022/01/14 09:13:23;;;;;;;13.33;11.93;;;14.70;56.90;;;;;;4991888;28;20278;-78
2022/01/14 09:15:49;;;;;;;14.50;12.60;;;14.80;55.60;;;;;;4993517;28;20606;-79
2022/01/14 09:18:17;;;;;;;14.90;11.33;;;14.20;55.20;;;;;;4974811;28;20550;-76
2022/01/14 09:20:43;;;;;;;15.47;10.90;;;12.90;56.40;;;;;;4990919;28;20285;-78
2022/01/14 09:23:15;;;;;;;14.90;12.40;;;11.70;60.50;;;;;;4992035;28;20548;-78
2022/01/14 09:25:41;;;;;;;14.37;11.80;;;10.60;65.60;;;;;;4992274;28;20222;-78
2022/01/14 09:28:07;;;;;;;19.20;12.40;;;9.90;72.90;;;;;;4992896;28;20968;-78
2022/01/14 09:30:33;;;;;;;17.40;14.00;;;9.10;76.90;;;;;;4992833;28;20413;-77
2022/01/14 09:32:58;;;;;;;21.00;13.80;;;8.40;81.60;;;;;;4990902;28;20670;-77
2022/01/14 09:35:24;;;;;;;20.03;13.80;;;8.00;85.00;;;;;;4990655;28;20209;-76
2022/01/14 09:37:50;;;;;;;22.23;13.87;;;7.70;89.20;;;;;;4991307;28;20257;-78
2022/01/14 09:40:17;;;;;;;18.83;13.53;;;7.70;90.50;;;;;;4990462;28;20653;-78
2022/01/14 09:42:48;;;;;;;17.00;11.27;;;8.50;89.80;;;;;;4991605;28;20585;-77
2022/01/14 09:45:14;;;;;;;17.17;11.80;;;10.60;81.80;;;;;;4990695;28;20452;-78
2022/01/14 09:47:40;;;;;;;19.83;13.63;;;12.50;71.90;;;;;;4991903;28;20816;-77
2022/01/14 09:50:06;;;;;;;22.20;14.47;;;13.90;65.50;;;;;;4991437;28;20422;-78
2022/01/14 09:52:33;;;;;;;16.37;14.30;;;14.90;62.00;;;;;;4993753;28;21011;-76
2022/01/14 09:54:59;;;;;;;19.53;14.80;;;15.70;59.10;;;;;;4992394;28;20718;-78
2022/01/14 09:57:27;;;;;;;22.97;16.70;;;16.30;57.60;;;;;;4989900;28;20534;-77
2022/01/14 09:59:53;;;;;;;18.50;15.90;;;16.80;55.60;;;;;;4991554;28;20195;-76
2022/01/14 10:02:51;;;;;;;21.80;15.40;;;17.40;54.40;;;;;;4989429;28;20473;-77
2022/01/14 10:05:32;;;;;;;16.90;14.63;;;17.70;53.00;;;;;;4978742;28;20226;-77
2022/01/14 10:08:08;;;;;;;16.90;14.50;;;18.30;52.20;;;;;;4990674;28;20457;-77
2022/01/14 10:10:37;;;;;;;21.77;15.40;;;18.60;51.10;;;;;;4991145;28;20439;-76
2022/01/14 10:13:13;;;;;;;21.60;15.77;;;19.10;49.70;;;;;;4990777;28;20460;-77
2022/01/14 10:15:48;;;;;;;19.10;15.03;;;19.20;48.60;;;;;;4989621;28;20560;-76
2022/01/14 10:18:16;;;;;;;18.13;16.00;;;19.60;48.40;;;;;;4991314;28;20452;-78
2022/01/14 10:20:42;;;;;;;20.33;15.50;;;19.90;47.50;;;;;;4992206;28;20426;-76
2022/01/14 10:23:08;;;;;;;19.53;15.60;;;20.10;46.70;;;;;;4990979;28;20483;-77
2022/01/14 10:25:34;;;;;;;22.43;17.77;;;20.20;46.30;;;;;;4990850;28;20492;-76
2022/01/14 10:27:59;;;;;;;22.67;17.87;;;20.20;46.00;;;;;;4990942;28;20233;-77
2022/01/14 10:30:28;;;;;;;18.83;15.90;;;20.40;45.50;;;;;;4973397;28;20767;-76
2022/01/14 10:33:08;;;;;;;21.40;15.57;;;20.60;44.80;;;;;;4989639;28;20189;-74
2022/01/14 10:35:46;;;;;;;15.47;13.87;;;20.80;43.90;;;;;;4990779;28;20448;-77
2022/01/14 10:38:14;;;;;;;18.50;13.87;;;20.90;43.90;;;;;;4990256;28;20508;-77
2022/01/14 10:40:57;;;;;;;19.47;14.20;;;20.90;43.40;;;;;;4988618;28;20433;-76
2022/01/14 10:43:35;;;;;;;17.60;13.73;;;21.00;43.10;;;;;;4990171;28;20473;-77
2022/01/14 10:46:08;;;;;;;15.17;13.57;;;21.10;42.90;;;;;;4989139;28;20759;-77
2022/01/14 10:48:36;;;;;;;20.00;15.80;;;21.20;42.50;;;;;;4988760;28;20530;-77
2022/01/14 10:51:10;;;;;;;20.57;14.90;;;21.30;42.20;;;;;;4991999;28;20444;-76
2022/01/14 10:53:39;;;;;;;23.90;14.07;;;21.20;42.40;;;;;;4990516;28;20447;-78
2022/01/14 10:56:07;;;;;;;17.80;13.60;;;21.20;42.20;;;;;;4989900;28;20466;-77
2022/01/14 10:58:39;;;;;;;19.63;13.80;;;20.90;42.90;;;;;;4988185;28;20417;-77
2022/01/14 11:01:12;;;;;;;16.03;12.07;;;20.70;42.80;;;;;;4987955;28;20435;-77
2022/01/14 11:03:52;;;;;;;14.50;12.70;;;20.50;43.30;;;;;;4989294;28;20535;-77
2022/01/14 11:06:23;;;;;;;20.83;11.17;;;20.40;43.30;;;;;;4989438;28;20424;-76
2022/01/14 11:08:57;;;;;;;14.37;11.67;;;20.40;43.10;;;;;;4989453;28;20941;-76
2022/01/14 11:11:24;;;;;;;13.80;11.77;;;20.40;43.30;;;;;;4989483;28;20548;-76
2022/01/14 11:13:50;;;;;;;15.10;12.80;;;20.40;43.50;;;;;;4988240;28;20476;-76
2022/01/14 11:16:16;;;;;;;15.30;12.27;;;20.30;43.20;;;;;;4990171;28;20459;-76
2022/01/14 11:18:42;;;;;;;16.40;11.70;;;20.50;43.20;;;;;;4989776;28;20203;-76
2022/01/14 11:23:52;;;;;;;19.10;15.00;;;20.90;42.50;;;;;;4989669;28;21011;-76
2022/01/14 11:26:20;;;;;;;20.13;14.83;;;20.70;42.00;;;;;;4989598;28;20425;-76
2022/01/14 11:28:48;;;;;;;21.77;12.80;;;20.70;42.20;;;;;;4989431;28;20277;-76
2022/01/14 11:31:28;;;;;;;23.63;17.03;;;20.50;42.70;;;;;;4989590;28;20784;-76
2022/01/14 11:33:55;;;;;;;23.60;16.27;;;20.00;42.60;;;;;;4988320;28;20486;-77
2022/01/14 11:36:21;;;;;;;21.40;14.17;;;19.50;44.10;;;;;;4991362;28;20478;-76
2022/01/14 11:38:48;;;;;;;17.20;14.10;;;19.20;44.10;;;;;;4990072;28;20424;-76
2022/01/14 11:41:19;;;;;;;18.87;13.20;;;19.00;43.80;;;;;;4988707;28;20429;-77
2022/01/14 11:43:46;;;;;;;25.30;15.87;;;19.20;44.30;;;;;;4988307;28;20494;-76
2022/01/14 11:46:16;;;;;;;19.80;13.80;;;19.30;44.20;;;;;;4990362;28;20750;-75
2022/01/14 11:48:49;;;;;;;15.27;10.87;;;19.20;43.90;;;;;;4991024;28;20428;-77
2022/01/14 11:51:17;;;;;;;16.07;12.43;;;19.30;43.70;;;;;;4991794;28;20426;-77
2022/01/14 11:53:47;;;;;;;15.13;11.70;;;19.50;43.50;;;;;;4991360;28;20568;-77
2022/01/14 11:56:33;;;;;;;15.57;11.57;;;19.30;43.10;;;;;;4990405;28;20452;-76
2022/01/14 11:59:17;;;;;;;14.33;9.10;;;19.40;42.90;;;;;;4990489;28;20787;-78
2022/01/14 12:01:44;;;;;;;13.60;9.70;;;19.20;41.90;;;;;;4990855;28;20421;-75
2022/01/14 12:04:09;;;;;;;12.30;8.57;;;19.20;42.70;;;;;;4988458;28;20488;-75
2022/01/14 12:06:50;;;;;;;14.60;7.97;;;19.10;42.20;;;;;;4988419;28;20798;-75
2022/01/14 12:09:24;;;;;;;7.27;6.53;;;18.90;42.20;;;;;;4989751;28;20178;-73
2022/01/14 12:12:22;;;;;;;11.67;8.47;;;18.20;42.00;;;;;;4989513;28;20409;-74
2022/01/14 12:14:56;;;;;;;17.30;10.67;;;18.10;42.80;;;;;;4989528;28;20949;-77
2022/01/14 12:17:42;;;;;;;15.93;10.10;;;18.10;43.10;;;;;;4988368;28;20428;-76
2022/01/14 12:20:12;;;;;;;12.83;9.43;;;17.70;43.20;;;;;;4990337;28;20508;-75
2022/01/14 12:22:38;;;;;;;16.70;10.90;;;17.30;43.80;;;;;;4990093;28;20432;-77
2022/01/14 12:25:06;;;;;;;19.10;10.97;;;16.70;45.20;;;;;;4989938;28;20789;-77
2022/01/14 12:27:43;;;;;;;15.20;9.80;;;16.10;46.50;;;;;;4989940;28;20417;-76
2022/01/14 12:30:12;;;;;;;13.30;9.50;;;15.30;47.90;;;;;;4990050;28;20399;-74
2022/01/14 12:32:41;;;;;;;16.37;9.40;;;14.80;48.90;;;;;;4989756;28;20415;-74
2022/01/14 12:35:12;;;;;;;15.73;9.80;;;14.40;50.20;;;;;;4989746;28;20431;-74
2022/01/14 12:37:46;;;;;;;13.63;9.53;;;13.90;51.50;;;;;;4989881;28;20409;-74
2022/01/14 12:40:31;;;;;;;11.80;8.70;;;13.70;54.40;;;;;;4989634;28;20401;-75
2022/01/14 12:43:03;;;;;;;18.10;9.53;;;13.60;53.20;;;;;;4989658;28;20453;-76
2022/01/14 12:46:11;;;;;;;18.33;8.60;;;13.60;53.10;;;;;;4989516;28;21252;-74
2022/01/14 12:48:40;;;;;;;12.90;8.90;;;13.50;53.90;;;;;;4990367;28;20424;-74
2022/01/14 12:51:12;;;;;;;18.40;9.77;;;13.30;54.20;;;;;;4988300;28;20491;-76
2022/01/14 12:53:50;;;;;;;15.17;10.00;;;13.00;56.40;;;;;;4988901;28;20445;-75
2022/01/14 12:56:17;;;;;;;12.87;8.57;;;13.00;56.70;;;;;;4990515;28;20428;-75
2022/01/14 12:58:51;;;;;;;16.00;9.00;;;13.10;56.20;;;;;;4992803;28;20470;-75
2022/01/14 13:01:17;;;;;;;14.60;9.10;;;13.00;55.70;;;;;;4992863;28;20420;-74
2022/01/14 13:03:43;;;;;;;10.90;8.30;;;12.60;56.40;;;;;;4992891;28;20525;-73
2022/01/14 13:06:09;;;;;;;13.50;8.60;;;12.60;58.30;;;;;;4992761;28;20209;-74
2022/01/14 13:08:34;;;;;;;9.27;7.67;;;12.70;59.60;;;;;;4992611;28;20577;-75